createdAt,value
2018-04-07T00:01:59.588Z,11.00
2018-04-07T00:04:27.792Z,11.45
2018-04-07T00:06:55.985Z,11.53
2018-04-07T00:09:24.920Z,12.82
2018-04-07T00:11:53.012Z,11.35
2018-04-07T00:14:21.226Z,10.52
2018-04-07T00:16:50.150Z,11.30
2018-04-07T00:19:19.109Z,10.98
2018-04-07T00:21:48.088Z,10.80
2018-04-07T00:24:17.098Z,11.38
2018-04-07T00:26:45.975Z,10.35
2018-04-07T00:29:14.880Z,11.35
2018-04-07T00:31:43.793Z,11.38
2018-04-07T00:34:11.913Z,10.57
2018-04-07T00:36:40.028Z,10.55
2018-04-07T00:39:08.274Z,11.52
2018-04-07T00:41:37.299Z,10.15
2018-04-07T00:44:05.428Z,12.32
2018-04-07T00:46:34.361Z,11.38
2018-04-07T00:49:02.505Z,11.20
2018-04-07T00:51:31.484Z,12.60
2018-04-07T00:54:00.379Z,11.60
2018-04-07T00:56:29.407Z,11.57
2018-04-07T00:58:57.531Z,9.73
2018-04-07T01:01:25.634Z,9.88
2018-04-07T01:03:53.758Z,10.48
2018-04-07T01:06:21.990Z,11.13
2018-04-07T01:08:50.091Z,11.15
2018-04-07T01:11:18.232Z,11.25
2018-04-07T01:13:46.404Z,12.43
2018-04-07T01:16:15.396Z,10.93
2018-04-07T01:18:44.282Z,14.45
2018-04-07T01:21:12.430Z,11.70
2018-04-07T01:23:41.448Z,10.65
2018-04-07T01:26:10.339Z,11.75
2018-04-07T01:28:38.473Z,10.25
2018-04-07T01:31:07.390Z,10.30
2018-04-07T01:33:35.518Z,11.52
2018-04-07T01:36:04.524Z,12.00
2018-04-07T01:38:33.503Z,13.62
2018-04-07T01:41:01.727Z,10.35
2018-04-07T01:43:29.825Z,11.63
2018-04-07T01:45:57.945Z,13.40
2018-04-07T01:48:26.102Z,12.43
2018-04-07T01:50:55.014Z,10.00
2018-04-07T01:53:23.166Z,12.65
2018-04-07T01:55:52.503Z,10.63
2018-04-07T01:58:20.610Z,13.32
2018-04-07T02:00:50.277Z,12.43
2018-04-07T02:03:19.226Z,11.12
2018-04-07T02:05:48.108Z,12.70
2018-04-07T02:08:16.232Z,11.40
2018-04-07T02:10:44.503Z,9.65
2018-04-07T02:13:13.492Z,12.02
2018-04-07T02:15:42.386Z,11.12
2018-04-07T02:18:10.466Z,13.18
2018-04-07T02:20:38.600Z,13.90
2018-04-07T02:23:06.717Z,13.57
2018-04-07T02:25:34.844Z,12.55
2018-04-07T02:28:02.973Z,11.23
2018-04-07T02:30:31.174Z,12.90
2018-04-07T02:33:00.109Z,11.38
2018-04-07T02:35:28.336Z,11.65
2018-04-07T02:37:56.448Z,13.15
2018-04-07T02:40:24.680Z,11.23
2018-04-07T02:42:53.659Z,13.27
2018-04-07T02:45:21.781Z,11.75
2018-04-07T02:47:49.951Z,10.52
2018-04-07T02:50:18.916Z,11.25
2018-04-07T02:52:47.941Z,11.17
2018-04-07T02:55:16.033Z,12.50
2018-04-07T02:57:44.253Z,12.30
2018-04-07T03:00:13.131Z,10.32
2018-04-07T03:02:42.124Z,11.85
2018-04-07T03:05:11.046Z,9.80
2018-04-07T03:07:40.006Z,11.17
2018-04-07T03:10:08.909Z,14.80
2018-04-07T03:12:37.772Z,11.15
2018-04-07T03:15:06.733Z,10.40
2018-04-07T03:17:35.080Z,10.63
2018-04-07T03:20:03.970Z,12.77
2018-04-07T03:22:32.858Z,15.70
2018-04-07T03:25:00.977Z,13.02
2018-04-07T03:27:29.204Z,10.65
2018-04-07T03:29:58.148Z,10.55
2018-04-07T03:32:27.051Z,12.88
2018-04-07T03:34:55.973Z,12.15
2018-04-07T03:37:24.823Z,13.70
2018-04-07T03:39:53.851Z,13.15
2018-04-07T03:42:22.713Z,12.85
2018-04-07T03:44:51.701Z,16.75
2018-04-07T03:47:20.574Z,13.62
2018-04-07T03:49:49.511Z,11.80
2018-04-07T03:52:18.443Z,11.60
2018-04-07T03:54:46.552Z,12.95
2018-04-07T03:57:14.683Z,12.35
2018-04-07T03:59:42.821Z,11.20
2018-04-07T04:02:10.987Z,11.38
2018-04-07T04:04:39.878Z,12.45
2018-04-07T04:07:08.734Z,15.30
2018-04-07T04:09:37.655Z,11.93
2018-04-07T04:12:05.749Z,13.30
2018-04-07T04:14:33.928Z,14.20
2018-04-07T04:17:02.068Z,12.88
2018-04-07T04:19:30.929Z,13.75
2018-04-07T04:21:59.946Z,16.10
2018-04-07T04:24:28.806Z,12.37
2018-04-07T04:26:57.757Z,14.50
2018-04-07T04:29:25.999Z,13.35
2018-04-07T04:31:54.125Z,13.80
2018-04-07T04:34:23.061Z,13.55
2018-04-07T04:36:51.949Z,11.73
2018-04-07T04:39:20.821Z,12.18
2018-04-07T04:41:49.112Z,11.98
2018-04-07T04:44:17.304Z,16.58
2018-04-07T04:46:45.412Z,12.80
2018-04-07T04:49:14.304Z,14.07
2018-04-07T04:51:43.233Z,13.23
2018-04-07T04:54:12.123Z,13.25
2018-04-07T04:56:41.084Z,12.82
2018-04-07T04:59:10.074Z,14.05
2018-04-07T05:01:38.957Z,12.77
2018-04-07T05:04:07.851Z,14.75
2018-04-07T05:06:36.833Z,14.40
2018-04-07T05:09:05.832Z,12.68
2018-04-07T05:11:34.037Z,13.10
2018-04-07T05:14:03.039Z,14.43
2018-04-07T05:16:31.140Z,15.55
2018-04-07T05:18:59.273Z,14.57
2018-04-07T05:21:27.400Z,11.87
2018-04-07T05:23:56.336Z,11.57
2018-04-07T05:26:25.288Z,14.48
2018-04-07T05:28:54.223Z,12.68
2018-04-07T05:31:22.312Z,13.82
2018-04-07T05:33:50.458Z,15.10
2018-04-07T05:36:18.731Z,12.67
2018-04-07T05:38:47.726Z,14.63
2018-04-07T05:41:15.860Z,14.05
2018-04-07T05:43:44.739Z,12.85
2018-04-07T05:46:13.782Z,12.90
2018-04-07T05:48:41.913Z,15.00
2018-04-07T05:51:10.830Z,17.00
2018-04-07T05:53:39.110Z,16.85
2018-04-07T05:56:07.285Z,18.08
2018-04-07T05:58:35.454Z,14.13
2018-04-07T06:01:03.566Z,17.67
2018-04-07T06:03:31.694Z,13.77
2018-04-07T06:05:59.867Z,14.77
2018-04-07T06:08:27.980Z,16.10
2018-04-07T06:10:56.215Z,16.75
2018-04-07T06:13:24.337Z,12.68
2018-04-07T06:15:54.067Z,14.90
2018-04-07T06:18:22.981Z,15.35
2018-04-07T06:20:51.112Z,16.63
2018-04-07T06:23:20.145Z,15.00
2018-04-07T06:25:48.316Z,14.63
2018-04-07T06:28:17.310Z,12.30
2018-04-07T06:30:45.422Z,17.10
2018-04-07T06:33:13.664Z,14.73
2018-04-07T06:35:41.824Z,13.25
2018-04-07T06:38:10.685Z,13.35
2018-04-07T06:40:39.704Z,16.70
2018-04-07T06:43:07.835Z,13.20
2018-04-07T06:45:36.764Z,11.40
2018-04-07T06:48:05.005Z,12.27
2018-04-07T06:50:33.117Z,12.63
2018-04-07T06:53:01.371Z,13.18
2018-04-07T06:55:30.374Z,11.93
2018-04-07T06:57:59.245Z,12.35
2018-04-07T07:00:27.435Z,13.85
2018-04-07T07:02:55.608Z,11.30
2018-04-07T07:05:23.725Z,12.20
2018-04-07T07:07:51.961Z,12.27
2018-04-07T07:10:20.134Z,11.75
2018-04-07T07:12:48.298Z,13.05
2018-04-07T07:15:17.286Z,12.00
2018-04-07T07:17:46.234Z,12.45
2018-04-07T07:20:15.172Z,11.55
2018-04-07T07:22:43.274Z,10.13
2018-04-07T07:25:11.414Z,13.20
2018-04-07T07:27:39.526Z,9.63
2018-04-07T07:30:08.410Z,11.38
2018-04-07T07:32:36.562Z,10.82
2018-04-07T07:35:04.721Z,12.60
2018-04-07T07:37:32.836Z,12.37
2018-04-07T07:40:00.965Z,11.98
2018-04-07T07:42:29.127Z,13.68
2018-04-07T07:44:57.260Z,11.60
2018-04-07T07:47:26.164Z,11.07
2018-04-07T07:49:55.050Z,15.10
2018-04-07T07:52:23.961Z,12.10
2018-04-07T07:54:52.097Z,10.65
2018-04-07T07:57:21.129Z,10.52
2018-04-07T07:59:49.982Z,10.40
2018-04-07T08:02:18.897Z,9.07
2018-04-07T08:04:47.898Z,10.13
2018-04-07T08:07:16.754Z,10.83
2018-04-07T08:09:46.601Z,11.90
2018-04-07T08:12:14.764Z,12.55
2018-04-07T08:14:42.905Z,11.27
2018-04-07T08:17:11.134Z,9.80
2018-04-07T08:19:39.236Z,11.35
2018-04-07T08:22:07.457Z,9.90
2018-04-07T08:24:36.437Z,9.65
2018-04-07T08:27:04.616Z,8.90
2018-04-07T08:29:33.493Z,9.75
2018-04-07T08:32:01.679Z,9.38
2018-04-07T08:34:29.856Z,9.98
2018-04-07T08:36:57.957Z,12.17
2018-04-07T08:39:26.257Z,10.73
2018-04-07T08:41:54.316Z,8.38
2018-04-07T08:44:22.520Z,7.18
2018-04-07T08:46:50.715Z,8.75
2018-04-07T08:49:18.897Z,11.00
2018-04-07T08:51:47.036Z,9.53
2018-04-07T08:54:15.192Z,8.90
2018-04-07T08:56:44.094Z,9.40
2018-04-07T08:59:13.010Z,8.63
2018-04-07T09:01:41.183Z,8.82
2018-04-07T09:04:09.352Z,10.18
2018-04-07T09:06:37.483Z,13.00
2018-04-07T09:09:05.673Z,8.30
2018-04-07T09:11:33.871Z,8.55
2018-04-07T09:14:01.968Z,7.43
2018-04-07T09:16:30.192Z,7.60
2018-04-07T09:18:58.320Z,9.43
2018-04-07T09:21:26.460Z,9.67
2018-04-07T09:23:54.729Z,8.00
2018-04-07T09:26:22.860Z,7.95
2018-04-07T09:28:51.046Z,7.80
2018-04-07T09:31:25.143Z,8.63
2018-04-07T09:33:54.084Z,7.23
2018-04-07T09:36:22.201Z,10.30
2018-04-07T09:38:50.344Z,10.30
2018-04-07T09:41:18.577Z,8.23
2018-04-07T09:43:47.489Z,9.00
2018-04-07T09:46:15.601Z,7.00
2018-04-07T09:48:43.826Z,7.20
2018-04-07T09:51:11.940Z,6.40
2018-04-07T09:53:40.078Z,7.97
2018-04-07T09:56:08.203Z,7.50
2018-04-07T09:58:37.157Z,9.90
2018-04-07T10:01:05.300Z,7.67
2018-04-07T10:03:33.474Z,7.70
2018-04-07T10:06:01.603Z,6.57
2018-04-07T10:08:29.720Z,6.70
2018-04-07T10:10:57.888Z,8.00
2018-04-07T10:13:26.032Z,10.47
2018-04-07T10:15:54.950Z,6.90
2018-04-07T10:18:23.124Z,6.03
2018-04-07T10:20:51.294Z,6.70
2018-04-07T10:23:19.464Z,6.67
2018-04-07T10:25:47.599Z,8.23
2018-04-07T10:28:15.842Z,6.63
2018-04-07T10:30:43.982Z,6.40
2018-04-07T10:33:12.076Z,6.20
2018-04-07T10:35:40.331Z,7.63
2018-04-07T10:38:08.500Z,6.97
2018-04-07T10:40:37.518Z,6.90
2018-04-07T10:43:05.680Z,7.73
2018-04-07T10:45:33.786Z,6.40
2018-04-07T10:48:01.965Z,5.80
2018-04-07T10:50:30.128Z,7.17
2018-04-07T10:52:58.350Z,6.90
2018-04-07T10:55:27.345Z,6.53
2018-04-07T10:57:55.448Z,7.20
2018-04-07T11:00:23.691Z,7.00
2018-04-07T11:02:51.801Z,7.77
2018-04-07T11:05:20.043Z,6.33
2018-04-07T11:07:48.173Z,8.07
2018-04-07T11:10:17.092Z,5.93
2018-04-07T11:12:45.206Z,6.07
2018-04-07T11:15:13.341Z,7.97
2018-04-07T11:17:41.508Z,6.43
2018-04-07T11:20:09.669Z,6.40
2018-04-07T11:22:37.855Z,7.07
2018-04-07T11:25:05.996Z,8.10
2018-04-07T11:27:34.913Z,5.63
2018-04-07T11:30:03.776Z,6.10
2018-04-07T11:32:32.671Z,7.03
2018-04-07T11:35:01.630Z,5.17
2018-04-07T11:37:29.727Z,5.60
2018-04-07T11:39:58.743Z,5.50
2018-04-07T11:42:27.703Z,5.87
2018-04-07T11:44:56.707Z,5.50
2018-04-07T11:47:24.846Z,5.70
2018-04-07T11:49:52.985Z,6.83
2018-04-07T11:52:21.142Z,5.67
2018-04-07T11:54:50.042Z,4.70
2018-04-07T11:57:18.201Z,6.60
2018-04-07T11:59:47.181Z,5.57
2018-04-07T12:02:15.373Z,4.80
2018-04-07T12:04:43.475Z,4.93
2018-04-07T12:07:11.622Z,5.23
2018-04-07T12:09:39.733Z,6.40
2018-04-07T12:12:08.641Z,5.70
2018-04-07T12:14:37.564Z,4.63
2018-04-07T12:17:05.813Z,6.13
2018-04-07T12:19:34.720Z,4.50
2018-04-07T12:22:02.845Z,5.37
2018-04-07T12:24:31.066Z,4.20
2018-04-07T12:26:59.237Z,8.00
2018-04-07T12:29:28.130Z,4.07
2018-04-07T12:31:56.305Z,4.60
2018-04-07T12:34:24.401Z,4.03
2018-04-07T12:36:52.644Z,5.80
2018-04-07T12:39:21.536Z,4.80
2018-04-07T12:41:49.714Z,4.03
2018-04-07T12:44:17.833Z,6.90
2018-04-07T12:46:45.946Z,3.83
2018-04-07T12:49:14.122Z,7.40
2018-04-07T12:51:42.979Z,4.23
2018-04-07T12:54:11.968Z,4.83
2018-04-07T12:56:40.848Z,6.50
2018-04-07T12:59:09.064Z,5.73
2018-04-07T13:01:38.055Z,5.03
2018-04-07T13:04:06.941Z,6.23
2018-04-07T13:06:35.901Z,5.93
2018-04-07T13:09:05.848Z,10.90
2018-04-07T13:11:34.838Z,6.83
2018-04-07T13:14:03.737Z,6.20
2018-04-07T13:16:31.861Z,5.53
2018-04-07T13:19:00.799Z,6.40
2018-04-07T13:21:28.962Z,5.50
2018-04-07T13:23:57.833Z,7.17
2018-04-07T13:26:26.741Z,9.43
2018-04-07T13:28:55.734Z,6.60
2018-04-07T13:31:24.725Z,7.77
2018-04-07T13:33:52.850Z,10.70
2018-04-07T13:36:21.783Z,6.83
2018-04-07T13:38:50.676Z,8.73
2018-04-07T13:41:18.848Z,8.60
2018-04-07T13:43:46.974Z,9.20
2018-04-07T13:46:15.193Z,6.80
2018-04-07T13:48:43.293Z,7.20
2018-04-07T13:51:11.442Z,6.13
2018-04-07T13:53:39.570Z,7.53
2018-04-07T13:56:08.457Z,8.20
2018-04-07T13:58:37.387Z,7.47
2018-04-07T14:01:05.558Z,7.93
2018-04-07T14:03:33.715Z,10.20
2018-04-07T14:06:02.618Z,8.60
2018-04-07T14:08:31.507Z,7.90
2018-04-07T14:10:59.618Z,8.20
2018-04-07T14:13:27.749Z,8.23
2018-04-07T14:15:55.927Z,9.47
2018-04-07T14:18:24.044Z,9.13
2018-04-07T14:20:52.172Z,11.27
2018-04-07T14:23:20.402Z,9.30
2018-04-07T14:25:49.300Z,9.30
2018-04-07T14:28:18.320Z,9.20
2018-04-07T14:30:47.289Z,9.80
2018-04-07T14:33:15.432Z,9.47
2018-04-07T14:35:43.655Z,9.77
2018-04-07T14:38:12.523Z,8.50
2018-04-07T14:40:41.434Z,8.57
2018-04-07T14:43:10.315Z,9.53
2018-04-07T14:45:38.565Z,8.70
2018-04-07T14:48:07.488Z,9.87
2018-04-07T14:50:36.484Z,7.93
2018-04-07T14:53:04.650Z,8.40
2018-04-07T14:55:33.537Z,8.37
2018-04-07T14:58:01.685Z,8.07
2018-04-07T15:00:30.704Z,7.90
2018-04-07T15:02:59.653Z,8.67
2018-04-07T15:05:29.478Z,7.30
2018-04-07T15:07:58.399Z,7.33
2018-04-07T15:10:26.569Z,7.83
2018-04-07T15:12:54.702Z,7.13
2018-04-07T15:15:23.624Z,7.97
2018-04-07T15:17:51.739Z,7.63
2018-04-07T15:20:19.975Z,7.83
2018-04-07T15:22:48.147Z,7.43
2018-04-07T15:25:17.140Z,7.83
2018-04-07T15:27:46.029Z,8.17
2018-04-07T15:30:14.918Z,7.40
2018-04-07T15:32:43.892Z,7.80
2018-04-07T15:35:12.081Z,7.70
2018-04-07T15:37:40.983Z,7.40
2018-04-07T15:40:09.110Z,7.47
2018-04-07T15:42:38.144Z,7.50
2018-04-07T15:45:06.269Z,7.40
2018-04-07T15:47:35.263Z,8.30
2018-04-07T15:50:04.290Z,7.77
2018-04-07T15:52:32.462Z,8.10
2018-04-07T15:55:00.637Z,7.30
2018-04-07T15:57:29.610Z,7.93
2018-04-07T15:59:58.524Z,7.83
2018-04-07T16:02:26.642Z,7.90
2018-04-07T16:04:55.544Z,6.40
2018-04-07T16:07:24.469Z,7.50
2018-04-07T16:09:52.642Z,7.23
2018-04-07T16:12:20.817Z,6.90
2018-04-07T16:14:49.002Z,8.17
2018-04-07T16:17:19.215Z,6.93
2018-04-07T16:19:47.340Z,7.67
2018-04-07T16:22:16.345Z,7.20
2018-04-07T16:24:44.477Z,6.97
2018-04-07T16:27:12.605Z,7.40
2018-04-07T16:29:40.795Z,6.80
2018-04-07T16:32:08.960Z,7.33
2018-04-07T16:34:37.085Z,5.87
2018-04-07T16:37:06.025Z,7.80
2018-04-07T16:39:34.117Z,7.53
2018-04-07T16:42:02.257Z,6.40
2018-04-07T16:44:30.366Z,7.23
2018-04-07T16:46:58.608Z,6.43
2018-04-07T16:49:26.766Z,5.77
2018-04-07T16:51:55.672Z,7.77
2018-04-07T16:54:23.844Z,5.87
2018-04-07T16:56:52.011Z,8.30
2018-04-07T16:59:20.898Z,5.20
2018-04-07T17:01:49.073Z,9.30
2018-04-07T17:04:18.071Z,5.40
2018-04-07T17:06:46.242Z,6.43
2018-04-07T17:09:14.380Z,5.30
2018-04-07T17:11:43.303Z,6.60
2018-04-07T17:14:11.454Z,7.43
2018-04-07T17:16:40.360Z,5.40
2018-04-07T17:19:08.497Z,5.10
2018-04-07T17:21:37.523Z,4.70
2018-04-07T17:24:06.379Z,7.70
2018-04-07T17:26:35.315Z,7.60
2018-04-07T17:29:03.452Z,8.73
2018-04-07T17:31:32.362Z,6.17
2018-04-07T17:34:01.223Z,7.73
2018-04-07T17:36:30.247Z,7.60
2018-04-07T17:38:58.530Z,5.13
2018-04-07T17:41:26.647Z,4.97
2018-04-07T17:43:56.299Z,5.20
2018-04-07T17:46:24.482Z,7.10
2018-04-07T17:48:52.637Z,4.30
2018-04-07T17:51:21.532Z,7.13
2018-04-07T17:53:49.650Z,7.80
2018-04-07T17:56:17.786Z,7.50
2018-04-07T17:58:45.950Z,11.27
2018-04-07T18:01:14.118Z,15.77
2018-04-07T18:03:42.291Z,10.50
2018-04-07T18:06:11.215Z,9.27
2018-04-07T18:08:39.327Z,6.40
2018-04-07T18:11:08.343Z,6.80
2018-04-07T18:13:37.212Z,10.80
2018-04-07T18:16:05.399Z,6.50
2018-04-07T18:18:33.557Z,5.03
2018-04-07T18:21:02.450Z,6.20
2018-04-07T18:23:30.645Z,4.53
2018-04-07T18:25:58.917Z,5.93
2018-04-07T18:28:27.037Z,4.93
2018-04-07T18:30:55.946Z,5.00
2018-04-07T18:33:24.866Z,6.60
2018-04-07T18:35:53.036Z,8.00
2018-04-07T18:38:22.036Z,8.90
2018-04-07T18:40:50.144Z,9.70
2018-04-07T18:43:18.294Z,7.07
2018-04-07T18:45:46.431Z,7.77
2018-04-07T18:48:14.577Z,12.47
2018-04-07T18:50:42.787Z,16.50
2018-04-07T18:53:10.928Z,11.87
2018-04-07T18:55:39.849Z,12.90
2018-04-07T18:58:08.020Z,15.53
2018-04-07T19:00:36.200Z,12.60
2018-04-07T19:03:04.347Z,12.30
2018-04-07T19:05:33.285Z,11.20
2018-04-07T19:08:01.417Z,12.73
2018-04-07T19:10:29.598Z,13.00
2018-04-07T19:12:57.745Z,11.63
2018-04-07T19:15:26.678Z,10.73
2018-04-07T19:17:54.819Z,18.03
2018-04-07T19:20:22.961Z,19.00
2018-04-07T19:22:51.166Z,15.17
2018-04-07T19:25:20.072Z,18.37
2018-04-07T19:27:48.220Z,14.77
2018-04-07T19:30:16.382Z,19.57
2018-04-07T19:32:45.310Z,24.20
2018-04-07T19:35:13.452Z,35.40
2018-04-07T19:37:42.386Z,34.43
2018-04-07T19:40:10.542Z,36.07
2018-04-07T19:42:38.673Z,30.67
2018-04-07T19:45:07.603Z,25.33
2018-04-07T19:47:35.801Z,21.63
2018-04-07T19:50:04.054Z,14.98
2018-04-07T19:52:32.194Z,18.20
2018-04-07T19:55:00.368Z,18.45
2018-04-07T19:57:29.379Z,20.03
2018-04-07T19:59:57.504Z,19.12
2018-04-07T20:02:26.518Z,24.60
2018-04-07T20:04:54.694Z,21.42
2018-04-07T20:07:23.706Z,25.23
2018-04-07T20:09:51.829Z,18.33
2018-04-07T20:12:20.869Z,23.58
2018-04-07T20:14:49.017Z,21.83
2018-04-07T20:17:17.932Z,19.45
2018-04-07T20:19:46.100Z,18.08
2018-04-07T20:22:14.229Z,16.43
2018-04-07T20:24:43.131Z,15.40
2018-04-07T20:27:12.070Z,17.25
2018-04-07T20:29:40.330Z,17.12
2018-04-07T20:32:08.468Z,17.87
2018-04-07T20:34:37.404Z,17.52
2018-04-07T20:37:05.570Z,21.53
2018-04-07T20:39:33.711Z,16.45
2018-04-07T20:42:13.654Z,17.02
2018-04-07T20:44:42.551Z,13.02
2018-04-07T20:47:10.693Z,14.23
2018-04-07T20:49:38.884Z,13.55
2018-04-07T20:52:07.785Z,14.93
2018-04-07T20:54:35.959Z,12.95
2018-04-07T20:57:04.104Z,16.67
2018-04-07T20:59:33.077Z,11.45
2018-04-07T21:02:01.221Z,15.40
2018-04-07T21:04:29.364Z,13.68
2018-04-07T21:06:58.266Z,16.97
2018-04-07T21:09:26.422Z,19.73
2018-04-07T21:11:54.615Z,26.23
2018-04-07T21:14:22.896Z,24.77
2018-04-07T21:16:51.055Z,24.70
2018-04-07T21:19:19.350Z,20.73
2018-04-07T21:21:47.467Z,22.13
2018-04-07T21:24:16.506Z,26.65
2018-04-07T21:26:44.646Z,21.05
2018-04-07T21:29:13.564Z,18.92
2018-04-07T21:31:41.693Z,17.40
2018-04-07T21:34:10.620Z,17.23
2018-04-07T21:36:38.813Z,19.80
2018-04-07T21:39:07.069Z,17.12
2018-04-07T21:41:35.200Z,14.90
2018-04-07T21:44:04.119Z,17.12
2018-04-07T21:46:32.307Z,14.20
2018-04-07T21:49:00.483Z,14.98
2018-04-07T21:51:28.586Z,15.00
2018-04-07T21:53:57.540Z,15.70
2018-04-07T21:56:25.665Z,14.38
2018-04-07T21:58:53.853Z,13.73
2018-04-07T22:01:22.772Z,16.90
2018-04-07T22:03:50.913Z,13.82
2018-04-07T22:06:19.830Z,12.90
2018-04-07T22:08:47.999Z,13.20
2018-04-07T22:11:16.144Z,20.25
2018-04-07T22:13:44.353Z,12.23
2018-04-07T22:16:12.523Z,11.57
2018-04-07T22:18:40.657Z,10.27
2018-04-07T22:21:09.578Z,12.83
2018-04-07T22:23:37.820Z,10.57
2018-04-07T22:26:06.712Z,10.80
2018-04-07T22:28:35.739Z,10.82
2018-04-07T22:31:03.912Z,13.48
2018-04-07T22:33:32.023Z,12.23
2018-04-07T22:36:00.187Z,10.80
2018-04-07T22:38:28.280Z,10.77
2018-04-07T22:40:56.500Z,14.98
2018-04-07T22:43:24.593Z,15.65
2018-04-07T22:45:52.739Z,13.88
2018-04-07T22:48:20.913Z,13.73
2018-04-07T22:50:49.196Z,10.77
2018-04-07T22:53:17.366Z,11.12
2018-04-07T22:55:45.473Z,11.63
2018-04-07T22:58:13.613Z,11.90
2018-04-07T23:00:41.752Z,14.25
2018-04-07T23:03:10.742Z,14.82
2018-04-07T23:05:39.764Z,18.52
2018-04-07T23:08:07.873Z,19.30
2018-04-07T23:10:36.112Z,18.12
2018-04-07T23:13:04.232Z,14.35
2018-04-07T23:15:33.161Z,16.95
2018-04-07T23:18:01.272Z,17.42
2018-04-07T23:20:30.349Z,15.75
2018-04-07T23:22:58.475Z,16.00
2018-04-07T23:25:26.612Z,16.80
2018-04-07T23:27:54.754Z,17.30
2018-04-07T23:30:23.116Z,16.77
2018-04-07T23:32:51.235Z,15.20
2018-04-07T23:35:19.473Z,14.38
2018-04-07T23:37:47.634Z,18.33
2018-04-07T23:40:15.739Z,14.32
2018-04-07T23:42:44.072Z,15.63
2018-04-07T23:45:12.260Z,12.95
2018-04-07T23:47:40.428Z,15.50
2018-04-07T23:50:08.598Z,14.65
2018-04-07T23:52:36.711Z,14.23
2018-04-07T23:55:04.853Z,12.48
2018-04-07T23:57:32.980Z,13.65
